sensor_id;sensor_type;location;lat;lon;timestamp;pressure;altitude;pressure_sealevel;temperature;humidity
33265;BME280;31404;53.974;-1.086;2023-03-01T00:00:35;103632.52;;;5.70;97.89
33265;BME280;31404;53.974;-1.086;2023-03-01T00:05:35;103633.82;;;5.06;98.80
33265;BME280;31404;53.974;-1.086;2023-03-01T00:10:34;103629.34;;;4.96;100.00
33265;BME280;31404;53.974;-1.086;2023-03-01T00:30:34;103626.07;;;5.39;96.97
33265;BME280;31404;53.974;-1.086;2023-03-01T00:35:35;103621.54;;;5.28;96.42
33265;BME280;31404;53.974;-1.086;2023-03-01T00:40:35;103617.89;;;5.74;95.57
33265;BME280;31404;53.974;-1.086;2023-03-01T00:45:35;103622.11;;;5.30;97.67
33265;BME280;31404;53.974;-1.086;2023-03-01T00:50:35;103616.54;;;4.44;100.00
33265;BME280;31404;53.974;-1.086;2023-03-01T00:55:36;103616.32;;;3.68;100.00
33265;BME280;31404;53.974;-1.086;2023-03-01T01:00:35;103611.29;;;4.97;100.00
33265;BME280;31404;53.974;-1.086;2023-03-01T01:05:35;103607.78;;;4.98;100.00
33265;BME280;31404;53.974;-1.086;2023-03-01T01:10:34;103600.75;;;5.51;99.97
33265;BME280;31404;53.974;-1.086;2023-03-01T01:20:36;103577.95;;;6.87;92.52
33265;BME280;31404;53.974;-1.086;2023-03-01T01:30:34;103570.04;;;7.26;88.40
33265;BME280;31404;53.974;-1.086;2023-03-01T01:35:34;103561.00;;;6.88;89.63
33265;BME280;31404;53.974;-1.086;2023-03-01T01:40:34;103557.29;;;6.98;88.38
33265;BME280;31404;53.974;-1.086;2023-03-01T01:45:36;103547.85;;;6.93;89.13
33265;BME280;31404;53.974;-1.086;2023-03-01T01:50:35;103538.22;;;7.26;87.06
33265;BME280;31404;53.974;-1.086;2023-03-01T01:55:36;103535.68;;;5.99;93.42
33265;BME280;31404;53.974;-1.086;2023-03-01T02:00:34;103534.31;;;5.82;97.97
33265;BME280;31404;53.974;-1.086;2023-03-01T02:05:38;103526.19;;;5.76;99.03
33265;BME280;31404;53.974;-1.086;2023-03-01T02:10:35;103524.82;;;4.87;100.00
33265;BME280;31404;53.974;-1.086;2023-03-01T02:15:36;103519.22;;;4.89;100.00
33265;BME280;31404;53.974;-1.086;2023-03-01T02:30:35;103504.07;;;6.40;92.72
33265;BME280;31404;53.974;-1.086;2023-03-01T02:35:37;103498.03;;;7.20;90.00
33265;BME280;31404;53.974;-1.086;2023-03-01T02:40:36;103493.24;;;6.66;91.08
33265;BME280;31404;53.974;-1.086;2023-03-01T02:45:34;103492.07;;;6.99;89.27
33265;BME280;31404;53.974;-1.086;2023-03-01T02:55:35;103499.40;;;7.25;87.16
33265;BME280;31404;53.974;-1.086;2023-03-01T03:00:37;103499.64;;;6.71;89.73
33265;BME280;31404;53.974;-1.086;2023-03-01T03:05:35;103493.06;;;7.69;86.19
33265;BME280;31404;53.974;-1.086;2023-03-01T03:10:37;103486.74;;;8.13;84.99
33265;BME280;31404;53.974;-1.086;2023-03-01T03:15:35;103488.35;;;8.20;84.23
33265;BME280;31404;53.974;-1.086;2023-03-01T03:20:34;103493.78;;;8.58;81.74
33265;BME280;31404;53.974;-1.086;2023-03-01T03:25:35;103493.47;;;8.67;81.71
33265;BME280;31404;53.974;-1.086;2023-03-01T03:30:36;103480.79;;;8.94;80.52
33265;BME280;31404;53.974;-1.086;2023-03-01T03:40:36;103463.85;;;7.90;85.33
33265;BME280;31404;53.974;-1.086;2023-03-01T03:45:36;103460.67;;;6.96;90.04
33265;BME280;31404;53.974;-1.086;2023-03-01T03:50:35;103457.08;;;6.74;90.20
33265;BME280;31404;53.974;-1.086;2023-03-01T03:55:35;103448.49;;;6.63;91.00
33265;BME280;31404;53.974;-1.086;2023-03-01T04:00:36;103455.26;;;6.15;93.66
33265;BME280;31404;53.974;-1.086;2023-03-01T04:05:36;103450.11;;;5.91;95.78
33265;BME280;31404;53.974;-1.086;2023-03-01T04:10:37;103444.42;;;5.57;97.63
33265;BME280;31404;53.974;-1.086;2023-03-01T04:15:35;103441.51;;;5.39;98.22
33265;BME280;31404;53.974;-1.086;2023-03-01T04:20:35;103445.02;;;5.76;97.56
33265;BME280;31404;53.974;-1.086;2023-03-01T04:25:35;103433.62;;;5.36;96.67
33265;BME280;31404;53.974;-1.086;2023-03-01T04:30:37;103433.25;;;5.39;95.20
33265;BME280;31404;53.974;-1.086;2023-03-01T04:35:35;103427.47;;;5.63;93.83
33265;BME280;31404;53.974;-1.086;2023-03-01T04:40:35;103412.42;;;6.55;89.94
33265;BME280;31404;53.974;-1.086;2023-03-01T04:45:35;103411.07;;;7.55;85.31
33265;BME280;31404;53.974;-1.086;2023-03-01T04:50:35;103405.48;;;7.16;85.52
33265;BME280;31404;53.974;-1.086;2023-03-01T04:55:35;103404.05;;;8.19;80.97
33265;BME280;31404;53.974;-1.086;2023-03-01T05:00:35;103400.06;;;8.59;78.99
33265;BME280;31404;53.974;-1.086;2023-03-01T05:05:37;103396.03;;;7.16;84.74
33265;BME280;31404;53.974;-1.086;2023-03-01T05:10:35;103396.26;;;7.36;84.55
33265;BME280;31404;53.974;-1.086;2023-03-01T05:15:34;103397.61;;;5.37;92.57
33265;BME280;31404;53.974;-1.086;2023-03-01T05:20:35;103388.13;;;3.77;100.00
33265;BME280;31404;53.974;-1.086;2023-03-01T05:25:35;103388.60;;;4.85;99.97
33265;BME280;31404;53.974;-1.086;2023-03-01T05:30:34;103385.30;;;5.49;96.87
33265;BME280;31404;53.974;-1.086;2023-03-01T05:35:34;103387.90;;;6.39;90.12
33265;BME280;31404;53.974;-1.086;2023-03-01T05:40:35;103381.54;;;6.04;92.38
33265;BME280;31404;53.974;-1.086;2023-03-01T05:45:36;103385.56;;;5.87;95.34
33265;BME280;31404;53.974;-1.086;2023-03-01T05:50:36;103393.37;;;5.63;96.42
33265;BME280;31404;53.974;-1.086;2023-03-01T05:55:35;103400.29;;;7.03;89.25
33265;BME280;31404;53.974;-1.086;2023-03-01T06:00:35;103404.53;;;5.99;93.29
33265;BME280;31404;53.974;-1.086;2023-03-01T06:05:35;103396.84;;;7.50;86.77
33265;BME280;31404;53.974;-1.086;2023-03-01T06:10:35;103401.39;;;6.09;91.69
33265;BME280;31404;53.974;-1.086;2023-03-01T06:15:35;103405.13;;;6.16;91.10
33265;BME280;31404;53.974;-1.086;2023-03-01T06:20:34;103395.74;;;7.30;86.23
33265;BME280;31404;53.974;-1.086;2023-03-01T06:25:37;103395.34;;;6.84;87.00
33265;BME280;31404;53.974;-1.086;2023-03-01T06:30:35;103397.85;;;5.88;89.83
33265;BME280;31404;53.974;-1.086;2023-03-01T06:35:34;103389.01;;;6.93;85.26
33265;BME280;31404;53.974;-1.086;2023-03-01T06:40:34;103395.07;;;6.98;85.37
33265;BME280;31404;53.974;-1.086;2023-03-01T06:45:34;103386.62;;;6.98;82.33
33265;BME280;31404;53.974;-1.086;2023-03-01T06:50:35;103385.84;;;7.42;82.66
33265;BME280;31404;53.974;-1.086;2023-03-01T06:55:34;103383.72;;;5.58;89.91
33265;BME280;31404;53.974;-1.086;2023-03-01T07:00:34;103376.95;;;6.72;86.30
33265;BME280;31404;53.974;-1.086;2023-03-01T07:05:34;103374.11;;;6.38;86.76
33265;BME280;31404;53.974;-1.086;2023-03-01T07:10:34;103378.56;;;6.47;86.30
33265;BME280;31404;53.974;-1.086;2023-03-01T07:15:34;103382.00;;;6.38;86.86
33265;BME280;31404;53.974;-1.086;2023-03-01T07:20:35;103391.31;;;4.55;94.06
33265;BME280;31404;53.974;-1.086;2023-03-01T07:25:35;103381.87;;;6.98;85.83
33265;BME280;31404;53.974;-1.086;2023-03-01T07:30:35;103391.64;;;7.75;82.89
33265;BME280;31404;53.974;-1.086;2023-03-01T07:35:35;103391.88;;;7.38;83.64
33265;BME280;31404;53.974;-1.086;2023-03-01T07:40:35;103395.15;;;6.90;87.58
33265;BME280;31404;53.974;-1.086;2023-03-01T07:45:34;103402.51;;;6.41;90.66
33265;BME280;31404;53.974;-1.086;2023-03-01T07:50:35;103396.57;;;6.35;89.61
33265;BME280;31404;53.974;-1.086;2023-03-01T07:55:34;103390.70;;;6.84;87.81
33265;BME280;31404;53.974;-1.086;2023-03-01T08:00:35;103395.16;;;6.72;88.23
33265;BME280;31404;53.974;-1.086;2023-03-01T08:05:35;103391.84;;;6.54;90.83
33265;BME280;31404;53.974;-1.086;2023-03-01T08:15:34;103395.35;;;6.33;91.99
33265;BME280;31404;53.974;-1.086;2023-03-01T08:20:35;103397.85;;;5.77;95.11
33265;BME280;31404;53.974;-1.086;2023-03-01T08:25:35;103387.74;;;5.62;99.68
33265;BME280;31404;53.974;-1.086;2023-03-01T08:30:35;103385.12;;;5.77;97.59
33265;BME280;31404;53.974;-1.086;2023-03-01T08:35:35;103374.73;;;6.32;94.89
33265;BME280;31404;53.974;-1.086;2023-03-01T08:40:34;103382.86;;;5.77;96.78
33265;BME280;31404;53.974;-1.086;2023-03-01T08:45:34;103387.45;;;4.75;100.00
33265;BME280;31404;53.974;-1.086;2023-03-01T08:50:34;103397.37;;;4.41;100.00
33265;BME280;31404;53.974;-1.086;2023-03-01T08:55:34;103400.96;;;4.91;100.00
33265;BME280;31404;53.974;-1.086;2023-03-01T09:00:34;103399.60;;;4.73;100.00
33265;BME280;31404;53.974;-1.086;2023-03-01T09:05:35;103405.30;;;4.27;100.00
33265;BME280;31404;53.974;-1.086;2023-03-01T09:15:36;103390.37;;;4.01;100.00
33265;BME280;31404;53.974;-1.086;2023-03-01T09:20:35;103379.16;;;2.90;100.00
33265;BME280;31404;53.974;-1.086;2023-03-01T09:25:35;103381.38;;;3.10;100.00
33265;BME280;31404;53.974;-1.086;2023-03-01T09:30:35;103384.98;;;3.94;100.00
33265;BME280;31404;53.974;-1.086;2023-03-01T09:35:35;103378.50;;;4.56;100.00
33265;BME280;31404;53.974;-1.086;2023-03-01T09:40:35;103374.96;;;3.61;100.00
33265;BME280;31404;53.974;-1.086;2023-03-01T09:55:38;103335.23;;;3.98;100.00
33265;BME280;31404;53.974;-1.086;2023-03-01T10:05:40;103327.07;;;4.81;100.00
33265;BME280;31404;53.974;-1.086;2023-03-01T10:30:37;103333.38;;;3.87;100.00
33265;BME280;31404;53.974;-1.086;2023-03-01T10:35:34;103329.79;;;4.87;100.00
33265;BME280;31404;53.974;-1.086;2023-03-01T10:40:36;103328.48;;;5.07;100.00
33265;BME280;31404;53.974;-1.086;2023-03-01T10:45:36;103333.91;;;4.50;100.00
33265;BME280;31404;53.974;-1.086;2023-03-01T10:50:35;103341.62;;;4.07;100.00
33265;BME280;31404;53.974;-1.086;2023-03-01T10:55:36;103330.32;;;4.69;100.00
33265;BME280;31404;53.974;-1.086;2023-03-01T11:05:34;103322.73;;;5.57;97.18
33265;BME280;31404;53.974;-1.086;2023-03-01T11:10:36;103314.52;;;4.43;100.00
33265;BME280;31404;53.974;-1.086;2023-03-01T11:15:34;103310.96;;;4.83;100.00
33265;BME280;31404;53.974;-1.086;2023-03-01T11:20:36;103310.22;;;4.31;100.00
33265;BME280;31404;53.974;-1.086;2023-03-01T11:25:37;103302.39;;;4.88;100.00
33265;BME280;31404;53.974;-1.086;2023-03-01T11:30:38;103294.62;;;4.87;100.00
33265;BME280;31404;53.974;-1.086;2023-03-01T11:35:36;103296.43;;;4.83;99.72
33265;BME280;31404;53.974;-1.086;2023-03-01T12:25:37;103232.21;;;4.32;100.00
33265;BME280;31404;53.974;-1.086;2023-03-01T12:55:37;103177.84;;;4.51;99.95
33265;BME280;31404;53.974;-1.086;2023-03-01T13:00:40;103180.61;;;4.84;98.21
33265;BME280;31404;53.974;-1.086;2023-03-01T13:15:36;103132.46;;;5.16;93.76
33265;BME280;31404;53.974;-1.086;2023-03-01T13:25:29;103122.72;;;4.83;95.73
33265;BME280;31404;53.974;-1.086;2023-03-01T13:55:41;103092.20;;;4.01;100.00
33265;BME280;31404;53.974;-1.086;2023-03-01T14:00:36;103079.25;;;4.28;100.00
33265;BME280;31404;53.974;-1.086;2023-03-01T14:05:35;103063.99;;;4.13;100.00
33265;BME280;31404;53.974;-1.086;2023-03-01T14:25:37;103030.61;;;4.40;100.00
33265;BME280;31404;53.974;-1.086;2023-03-01T14:30:37;103018.54;;;3.92;100.00
33265;BME280;31404;53.974;-1.086;2023-03-01T14:35:36;103016.76;;;4.40;100.00
33265;BME280;31404;53.974;-1.086;2023-03-01T14:40:37;103018.47;;;4.48;100.00
33265;BME280;31404;53.974;-1.086;2023-03-01T14:45:35;103015.88;;;4.72;100.00
33265;BME280;31404;53.974;-1.086;2023-03-01T14:55:37;102998.54;;;5.12;100.00
33265;BME280;31404;53.974;-1.086;2023-03-01T15:00:36;102992.72;;;5.95;96.31
33265;BME280;31404;53.974;-1.086;2023-03-01T15:05:34;102987.90;;;5.59;99.26
33265;BME280;31404;53.974;-1.086;2023-03-01T15:10:36;102979.08;;;5.81;96.96
33265;BME280;31404;53.974;-1.086;2023-03-01T15:15:38;102970.75;;;5.24;98.53
33265;BME280;31404;53.974;-1.086;2023-03-01T15:20:34;102964.25;;;5.09;98.54
33265;BME280;31404;53.974;-1.086;2023-03-01T15:25:34;102947.79;;;4.90;99.81
33265;BME280;31404;53.974;-1.086;2023-03-01T15:30:36;102945.78;;;4.25;100.00
33265;BME280;31404;53.974;-1.086;2023-03-01T15:40:35;102928.90;;;4.24;100.00
33265;BME280;31404;53.974;-1.086;2023-03-01T15:45:35;102930.65;;;4.48;100.00
33265;BME280;31404;53.974;-1.086;2023-03-01T15:50:36;102932.24;;;5.18;98.71
33265;BME280;31404;53.974;-1.086;2023-03-01T15:55:35;102934.42;;;5.36;94.71
33265;BME280;31404;53.974;-1.086;2023-03-01T16:00:35;102922.39;;;5.62;93.61
33265;BME280;31404;53.974;-1.086;2023-03-01T16:05:35;102920.01;;;4.68;98.77
33265;BME280;31404;53.974;-1.086;2023-03-01T16:10:35;102915.88;;;5.54;94.56
33265;BME280;31404;53.974;-1.086;2023-03-01T16:15:35;102913.49;;;5.12;97.64
33265;BME280;31404;53.974;-1.086;2023-03-01T16:20:36;102920.27;;;5.48;97.08
33265;BME280;31404;53.974;-1.086;2023-03-01T16:25:35;102922.90;;;4.79;100.00
33265;BME280;31404;53.974;-1.086;2023-03-01T16:30:35;102924.10;;;4.51;100.00
33265;BME280;31404;53.974;-1.086;2023-03-01T16:40:35;102917.43;;;4.61;100.00
33265;BME280;31404;53.974;-1.086;2023-03-01T16:45:35;102918.77;;;3.40;100.00
33265;BME280;31404;53.974;-1.086;2023-03-01T16:50:34;102901.20;;;4.21;100.00
33265;BME280;31404;53.974;-1.086;2023-03-01T16:55:34;102907.32;;;3.71;100.00
33265;BME280;31404;53.974;-1.086;2023-03-01T17:00:34;102898.85;;;4.59;100.00
33265;BME280;31404;53.974;-1.086;2023-03-01T17:05:35;102901.95;;;5.44;98.44
33265;BME280;31404;53.974;-1.086;2023-03-01T17:10:35;102908.59;;;4.56;100.00
33265;BME280;31404;53.974;-1.086;2023-03-01T17:15:37;102903.45;;;4.06;100.00
33265;BME280;31404;53.974;-1.086;2023-03-01T17:20:35;102905.61;;;4.60;100.00
33265;BME280;31404;53.974;-1.086;2023-03-01T17:25:34;102915.37;;;3.99;100.00
33265;BME280;31404;53.974;-1.086;2023-03-01T17:30:34;102913.89;;;3.43;100.00
33265;BME280;31404;53.974;-1.086;2023-03-01T17:35:35;102898.95;;;4.62;100.00
33265;BME280;31404;53.974;-1.086;2023-03-01T17:40:34;102901.38;;;4.57;100.00
33265;BME280;31404;53.974;-1.086;2023-03-01T17:45:36;102901.23;;;5.63;100.00
33265;BME280;31404;53.974;-1.086;2023-03-01T17:50:37;102911.61;;;7.01;100.00
33265;BME280;31404;53.974;-1.086;2023-03-01T17:55:35;102915.49;;;4.30;100.00
33265;BME280;31404;53.974;-1.086;2023-03-01T18:00:35;102915.28;;;5.62;100.00
33265;BME280;31404;53.974;-1.086;2023-03-01T18:05:35;102914.63;;;5.40;100.00
33265;BME280;31404;53.974;-1.086;2023-03-01T18:10:34;102910.57;;;5.66;100.00
33265;BME280;31404;53.974;-1.086;2023-03-01T18:15:35;102911.24;;;4.78;100.00
33265;BME280;31404;53.974;-1.086;2023-03-01T18:20:35;102919.96;;;4.63;100.00
33265;BME280;31404;53.974;-1.086;2023-03-01T18:30:35;102913.40;;;4.10;100.00
33265;BME280;31404;53.974;-1.086;2023-03-01T18:35:35;102911.20;;;4.90;100.00
33265;BME280;31404;53.974;-1.086;2023-03-01T18:40:34;102908.42;;;4.57;100.00
33265;BME280;31404;53.974;-1.086;2023-03-01T18:45:35;102906.40;;;4.52;100.00
33265;BME280;31404;53.974;-1.086;2023-03-01T18:50:35;102906.65;;;5.29;100.00
33265;BME280;31404;53.974;-1.086;2023-03-01T18:55:36;102903.23;;;4.33;100.00
33265;BME280;31404;53.974;-1.086;2023-03-01T19:00:35;102905.19;;;4.51;100.00
33265;BME280;31404;53.974;-1.086;2023-03-01T19:05:35;102910.12;;;4.61;100.00
33265;BME280;31404;53.974;-1.086;2023-03-01T19:10:34;102903.60;;;5.21;100.00
33265;BME280;31404;53.974;-1.086;2023-03-01T19:15:35;102896.47;;;5.28;100.00
33265;BME280;31404;53.974;-1.086;2023-03-01T19:20:35;102899.38;;;5.17;100.00
33265;BME280;31404;53.974;-1.086;2023-03-01T19:25:34;102895.88;;;4.81;100.00
33265;BME280;31404;53.974;-1.086;2023-03-01T19:30:34;102896.85;;;5.40;100.00
33265;BME280;31404;53.974;-1.086;2023-03-01T19:35:34;102901.95;;;4.92;100.00
33265;BME280;31404;53.974;-1.086;2023-03-01T19:40:35;102902.56;;;4.90;100.00
33265;BME280;31404;53.974;-1.086;2023-03-01T19:45:35;102901.54;;;4.63;100.00
33265;BME280;31404;53.974;-1.086;2023-03-01T19:50:35;102893.53;;;5.31;100.00
33265;BME280;31404;53.974;-1.086;2023-03-01T19:55:36;102890.62;;;4.50;100.00
33265;BME280;31404;53.974;-1.086;2023-03-01T20:00:36;102881.12;;;5.13;100.00
33265;BME280;31404;53.974;-1.086;2023-03-01T20:05:36;102878.20;;;4.88;100.00
33265;BME280;31404;53.974;-1.086;2023-03-01T20:10:35;102876.77;;;5.26;98.11
33265;BME280;31404;53.974;-1.086;2023-03-01T20:15:35;102880.03;;;4.64;96.02
33265;BME280;31404;53.974;-1.086;2023-03-01T20:20:35;102877.42;;;6.38;90.42
33265;BME280;31404;53.974;-1.086;2023-03-01T20:25:34;102886.40;;;6.34;88.23
33265;BME280;31404;53.974;-1.086;2023-03-01T20:30:37;102897.09;;;5.73;89.42
33265;BME280;31404;53.974;-1.086;2023-03-01T20:40:35;102901.19;;;5.99;85.08
33265;BME280;31404;53.974;-1.086;2023-03-01T20:55:36;102895.59;;;7.52;79.72
33265;BME280;31404;53.974;-1.086;2023-03-01T21:00:35;102893.77;;;8.32;75.75
33265;BME280;31404;53.974;-1.086;2023-03-01T21:05:29;102897.96;;;7.41;78.48
33265;BME280;31404;53.974;-1.086;2023-03-01T21:10:35;102897.93;;;7.47;77.07
33265;BME280;31404;53.974;-1.086;2023-03-01T21:15:35;102898.51;;;6.74;80.06
33265;BME280;31404;53.974;-1.086;2023-03-01T21:20:35;102894.60;;;6.78;79.74
33265;BME280;31404;53.974;-1.086;2023-03-01T21:25:34;102889.20;;;6.41;81.85
33265;BME280;31404;53.974;-1.086;2023-03-01T21:30:35;102889.94;;;5.53;84.07
33265;BME280;31404;53.974;-1.086;2023-03-01T21:35:35;102884.99;;;6.26;81.66
33265;BME280;31404;53.974;-1.086;2023-03-01T21:40:36;102884.88;;;5.77;84.06
33265;BME280;31404;53.974;-1.086;2023-03-01T21:45:35;102875.78;;;6.25;81.85
33265;BME280;31404;53.974;-1.086;2023-03-01T21:50:35;102873.83;;;5.81;82.63
33265;BME280;31404;53.974;-1.086;2023-03-01T21:55:35;102871.91;;;6.08;82.68
33265;BME280;31404;53.974;-1.086;2023-03-01T22:00:36;102872.64;;;6.18;82.98
33265;BME280;31404;53.974;-1.086;2023-03-01T22:05:35;102871.94;;;5.61;84.39
33265;BME280;31404;53.974;-1.086;2023-03-01T22:20:36;102879.12;;;6.85;79.19
33265;BME280;31404;53.974;-1.086;2023-03-01T22:30:35;102878.45;;;8.19;74.62
33265;BME280;31404;53.974;-1.086;2023-03-01T22:35:34;102879.45;;;7.99;75.00
33265;BME280;31404;53.974;-1.086;2023-03-01T22:40:35;102882.44;;;8.97;72.00
33265;BME280;31404;53.974;-1.086;2023-03-01T22:45:35;102883.61;;;7.36;77.38
33265;BME280;31404;53.974;-1.086;2023-03-01T22:50:35;102881.65;;;8.06;76.27
33265;BME280;31404;53.974;-1.086;2023-03-01T22:55:35;102885.51;;;8.10;75.37
33265;BME280;31404;53.974;-1.086;2023-03-01T23:00:35;102890.09;;;9.10;73.22
33265;BME280;31404;53.974;-1.086;2023-03-01T23:15:34;102891.85;;;4.64;90.22
33265;BME280;31404;53.974;-1.086;2023-03-01T23:20:35;102886.54;;;6.12;87.28
33265;BME280;31404;53.974;-1.086;2023-03-01T23:25:35;102893.01;;;5.47;90.80
33265;BME280;31404;53.974;-1.086;2023-03-01T23:30:35;102882.82;;;5.38;90.60
33265;BME280;31404;53.974;-1.086;2023-03-01T23:40:37;102876.99;;;6.69;84.94
33265;BME280;31404;53.974;-1.086;2023-03-01T23:45:37;102877.30;;;6.66;83.21
33265;BME280;31404;53.974;-1.086;2023-03-01T23:50:35;102872.55;;;7.29;81.35
33265;BME280;31404;53.974;-1.086;2023-03-01T23:55:37;102869.05;;;7.72;79.52
